createdAt,value
2022-12-08T00:02:07.339Z,29.27
2022-12-08T00:05:29.551Z,32.33
2022-12-08T00:08:51.440Z,31.25
2022-12-08T00:12:00.277Z,32.70
2022-12-08T00:15:03.929Z,28.23
2022-12-08T00:18:07.567Z,27.65
2022-12-08T00:21:10.915Z,28.05
2022-12-08T00:24:14.350Z,31.57
2022-12-08T00:27:18.231Z,29.65
2022-12-08T00:30:21.891Z,31.80
2022-12-08T00:33:25.298Z,28.27
2022-12-08T00:36:29.119Z,30.27
2022-12-08T00:39:32.553Z,29.85
2022-12-08T00:42:35.855Z,29.98
2022-12-08T00:45:39.701Z,30.08
2022-12-08T00:48:43.676Z,25.77
2022-12-08T00:51:47.331Z,27.30
2022-12-08T00:54:50.649Z,31.35
2022-12-08T00:57:54.059Z,32.47
2022-12-08T01:00:57.535Z,24.83
2022-12-08T01:04:10.484Z,27.20
2022-12-08T01:07:14.216Z,31.58
2022-12-08T01:10:18.186Z,33.33
2022-12-08T01:13:21.561Z,30.55
2022-12-08T01:16:30.353Z,27.92
2022-12-08T01:19:33.814Z,29.73
2022-12-08T01:22:37.207Z,31.03
2022-12-08T01:25:40.566Z,29.23
2022-12-08T01:28:44.436Z,30.38
2022-12-08T01:31:47.797Z,26.15
2022-12-08T01:34:51.178Z,28.70
2022-12-08T01:37:54.594Z,30.15
2022-12-08T01:40:58.356Z,27.92
2022-12-08T01:44:10.662Z,27.08
2022-12-08T01:47:14.058Z,30.27
2022-12-08T01:50:20.845Z,28.70
2022-12-08T01:53:30.502Z,29.33
2022-12-08T01:56:46.546Z,30.83
2022-12-08T02:00:00.808Z,30.67
2022-12-08T02:03:27.150Z,29.02
2022-12-08T02:06:34.757Z,31.58
2022-12-08T02:09:40.668Z,29.02
2022-12-08T02:12:44.238Z,27.55
2022-12-08T02:15:53.749Z,29.20
2022-12-08T02:19:30.833Z,29.70
2022-12-08T02:22:50.171Z,32.67
2022-12-08T02:26:16.579Z,29.25
2022-12-08T02:29:22.864Z,27.70
2022-12-08T02:32:32.276Z,26.60
2022-12-08T02:36:26.133Z,26.52
2022-12-08T02:39:42.772Z,26.88
2022-12-08T02:42:49.595Z,28.73
2022-12-08T02:46:01.299Z,29.58
2022-12-08T02:49:05.337Z,29.60
2022-12-08T02:52:14.294Z,29.10
2022-12-08T02:55:35.692Z,32.92
2022-12-08T02:59:11.549Z,29.25
2022-12-08T03:02:54.221Z,28.45
2022-12-08T03:06:16.095Z,28.53
2022-12-08T03:09:39.941Z,27.42
2022-12-08T03:13:03.880Z,27.92
2022-12-08T03:16:10.143Z,29.45
2022-12-08T03:19:20.126Z,31.10
2022-12-08T03:22:27.675Z,33.47
2022-12-08T03:25:37.124Z,31.98
2022-12-08T03:28:40.772Z,34.92
2022-12-08T03:31:50.872Z,32.03
2022-12-08T03:34:56.568Z,29.23
2022-12-08T03:38:12.077Z,32.53
2022-12-08T03:41:18.473Z,31.63
2022-12-08T03:44:21.903Z,34.13
2022-12-08T03:47:25.368Z,36.03
2022-12-08T03:50:28.886Z,34.58
2022-12-08T03:53:32.309Z,33.03
2022-12-08T03:56:38.495Z,32.50
2022-12-08T03:59:42.178Z,31.55
2022-12-08T04:02:45.741Z,33.17
2022-12-08T04:05:49.258Z,30.52
2022-12-08T04:08:52.779Z,31.07
2022-12-08T04:11:56.267Z,29.80
2022-12-08T04:14:59.629Z,27.67
2022-12-08T04:18:03.031Z,31.52
2022-12-08T04:21:06.587Z,31.47
2022-12-08T04:24:10.388Z,30.90
2022-12-08T04:27:13.776Z,35.78
2022-12-08T04:30:17.250Z,36.08
2022-12-08T04:33:20.657Z,32.53
2022-12-08T04:36:24.082Z,32.88
2022-12-08T04:39:27.508Z,39.38
2022-12-08T04:42:30.903Z,39.63
2022-12-08T04:45:34.663Z,34.00
2022-12-08T04:48:39.366Z,37.42
2022-12-08T04:51:42.762Z,29.90
2022-12-08T04:54:46.128Z,34.00
2022-12-08T04:57:49.734Z,32.60
2022-12-08T05:00:53.314Z,31.00
2022-12-08T05:03:56.823Z,33.03
2022-12-08T05:07:00.223Z,31.40
2022-12-08T05:10:04.319Z,28.88
2022-12-08T05:13:08.642Z,29.60
2022-12-08T05:16:16.347Z,29.70
2022-12-08T05:19:19.948Z,31.85
2022-12-08T05:22:23.498Z,33.65
2022-12-08T05:25:27.004Z,39.03
2022-12-08T05:28:45.838Z,31.37
2022-12-08T05:31:49.432Z,46.03
2022-12-08T05:34:52.909Z,52.30
2022-12-08T05:37:56.246Z,33.85
2022-12-08T05:40:59.567Z,39.53
2022-12-08T05:44:02.969Z,34.63
2022-12-08T05:47:06.469Z,35.17
2022-12-08T05:50:10.060Z,34.13
2022-12-08T05:53:13.693Z,34.90
2022-12-08T05:56:17.251Z,33.58
2022-12-08T05:59:20.618Z,36.70
2022-12-08T06:02:24.205Z,33.40
2022-12-08T06:05:27.766Z,36.13
2022-12-08T06:08:31.306Z,31.33
2022-12-08T06:11:34.828Z,31.77
2022-12-08T06:14:41.032Z,30.77
2022-12-08T06:17:44.480Z,35.92
2022-12-08T06:20:47.951Z,34.77
2022-12-08T06:23:54.762Z,31.35
2022-12-08T06:26:58.286Z,30.40
2022-12-08T06:30:02.445Z,32.20
2022-12-08T06:33:07.845Z,29.55
2022-12-08T06:36:13.763Z,37.70
2022-12-08T06:39:17.111Z,32.22
2022-12-08T06:42:39.113Z,32.72
2022-12-08T06:45:42.593Z,32.00
2022-12-08T06:48:46.750Z,29.05
2022-12-08T06:51:50.603Z,30.60
2022-12-08T06:54:54.043Z,37.60
2022-12-08T06:57:57.612Z,35.38
2022-12-08T07:06:09.171Z,37.40
2022-12-08T07:09:13.262Z,41.13
2022-12-08T07:12:16.777Z,46.72
2022-12-08T07:15:20.800Z,35.80
2022-12-08T07:18:24.168Z,32.45
2022-12-08T07:21:27.569Z,33.47
2022-12-08T07:24:31.034Z,29.42
2022-12-08T07:27:34.437Z,32.15
2022-12-08T07:30:38.796Z,29.73
2022-12-08T07:33:43.050Z,35.83
2022-12-08T07:36:46.930Z,34.40
2022-12-08T07:39:50.365Z,37.33
2022-12-08T07:42:53.740Z,38.53
2022-12-08T07:45:57.280Z,38.90
2022-12-08T07:49:00.848Z,35.92
2022-12-08T07:52:04.226Z,37.67
2022-12-08T07:55:10.240Z,38.08
2022-12-08T07:58:13.773Z,38.93
2022-12-08T08:01:28.353Z,38.05
2022-12-08T08:04:31.924Z,35.13
2022-12-08T08:07:36.838Z,37.05
2022-12-08T08:10:40.949Z,38.80
2022-12-08T08:13:44.492Z,36.50
2022-12-08T08:16:48.012Z,38.92
2022-12-08T08:19:51.597Z,39.60
2022-12-08T08:22:54.962Z,35.85
2022-12-08T08:26:04.400Z,37.87
2022-12-08T08:29:08.008Z,36.53
2022-12-08T08:32:11.793Z,48.75
2022-12-08T08:35:15.568Z,42.88
2022-12-08T08:38:18.990Z,50.15
2022-12-08T08:41:22.720Z,49.30
2022-12-08T08:44:28.819Z,39.78
2022-12-08T08:47:32.291Z,43.92
2022-12-08T08:50:37.711Z,33.78
2022-12-08T08:53:41.945Z,36.40
2022-12-08T08:56:45.462Z,39.23
2022-12-08T08:59:49.088Z,36.55
2022-12-08T09:02:52.651Z,38.67
2022-12-08T09:05:56.749Z,39.28
2022-12-08T09:09:00.255Z,38.92
2022-12-08T09:12:03.727Z,34.90
2022-12-08T09:15:07.654Z,38.20
2022-12-08T09:18:11.262Z,39.90
2022-12-08T09:21:20.668Z,37.83
2022-12-08T09:24:24.199Z,38.05
2022-12-08T09:27:27.846Z,38.67
2022-12-08T09:30:31.474Z,39.67
2022-12-08T09:33:35.019Z,38.80
2022-12-08T09:36:38.524Z,42.20
2022-12-08T09:39:42.380Z,42.22
2022-12-08T09:42:53.733Z,36.73
2022-12-08T09:45:58.646Z,33.70
2022-12-08T09:49:03.603Z,37.00
2022-12-08T09:52:19.889Z,35.85
2022-12-08T09:55:34.354Z,34.55
2022-12-08T09:59:04.187Z,30.17
2022-12-08T10:02:26.236Z,33.58
2022-12-08T10:05:37.677Z,31.52
2022-12-08T10:09:11.165Z,36.72
2022-12-08T10:13:07.520Z,28.48
2022-12-08T10:16:38.927Z,31.47
2022-12-08T10:19:43.352Z,32.90
2022-12-08T10:22:57.016Z,32.70
2022-12-08T10:26:12.396Z,32.28
2022-12-08T10:29:16.175Z,29.27
2022-12-08T10:32:34.282Z,29.50
2022-12-08T10:35:50.299Z,23.83
2022-12-08T10:38:54.041Z,23.90
2022-12-08T10:42:15.818Z,21.88
2022-12-08T10:45:37.659Z,23.85
2022-12-08T10:49:03.468Z,23.97
2022-12-08T10:52:25.718Z,22.55
2022-12-08T10:55:38.753Z,23.67
2022-12-08T10:58:44.296Z,21.67
2022-12-08T11:01:52.785Z,23.80
2022-12-08T11:05:01.863Z,22.90
2022-12-08T11:08:06.372Z,18.08
2022-12-08T11:11:10.391Z,22.60
2022-12-08T11:14:47.724Z,20.40
2022-12-08T11:18:03.274Z,23.15
2022-12-08T11:21:17.942Z,23.60
2022-12-08T11:24:25.876Z,22.38
2022-12-08T11:27:30.011Z,18.50
2022-12-08T11:30:39.951Z,21.30
2022-12-08T11:33:44.642Z,19.88
2022-12-08T11:36:49.854Z,21.50
2022-12-08T11:39:56.483Z,24.10
2022-12-08T11:43:29.326Z,20.88
2022-12-08T11:46:38.226Z,20.40
2022-12-08T11:49:43.393Z,26.25
2022-12-08T11:52:50.909Z,26.80
2022-12-08T11:56:00.500Z,24.38
2022-12-08T11:59:18.842Z,23.15
2022-12-08T12:02:26.415Z,22.90
2022-12-08T12:06:13.148Z,22.02
2022-12-08T12:09:29.905Z,22.67
2022-12-08T12:12:40.148Z,18.70
2022-12-08T12:16:11.082Z,22.23
2022-12-08T12:19:18.202Z,23.88
2022-12-08T12:22:24.348Z,23.27
2022-12-08T12:25:28.823Z,26.93
2022-12-08T12:28:50.240Z,26.15
2022-12-08T12:32:03.051Z,29.02
2022-12-08T12:35:35.183Z,23.42
2022-12-08T12:39:04.239Z,28.05
2022-12-08T12:42:07.677Z,27.20
2022-12-08T12:45:17.092Z,25.80
2022-12-08T12:48:26.048Z,24.90
2022-12-08T12:51:54.331Z,26.35
2022-12-08T12:54:57.715Z,26.77
2022-12-08T12:58:19.303Z,25.10
2022-12-08T13:01:22.672Z,21.00
2022-12-08T13:04:37.753Z,25.73
2022-12-08T13:07:55.572Z,23.85
2022-12-08T13:11:01.875Z,26.60
2022-12-08T13:14:05.991Z,31.37
2022-12-08T13:17:15.872Z,32.33
2022-12-08T13:20:23.213Z,26.35
2022-12-08T13:23:38.558Z,32.00
2022-12-08T13:26:50.443Z,37.03
2022-12-08T13:30:54.309Z,31.00
2022-12-08T13:33:58.511Z,26.10
2022-12-08T13:37:27.991Z,25.92
2022-12-08T13:40:34.536Z,25.77
2022-12-08T13:44:31.235Z,25.08
2022-12-08T13:47:36.025Z,30.37
2022-12-08T13:58:00.748Z,26.17
2022-12-08T14:01:23.586Z,25.40
2022-12-08T14:04:47.777Z,23.90
2022-12-08T14:07:55.533Z,23.60
2022-12-08T14:11:03.482Z,27.67
2022-12-08T14:14:07.116Z,24.48
2022-12-08T14:17:16.008Z,25.08
2022-12-08T14:20:22.729Z,25.10
2022-12-08T14:23:26.373Z,26.27
2022-12-08T14:26:35.506Z,29.05
2022-12-08T14:29:52.285Z,30.02
2022-12-08T14:33:01.332Z,39.42
2022-12-08T14:36:05.567Z,41.53
2022-12-08T14:39:09.531Z,30.05
2022-12-08T14:42:24.548Z,30.65
2022-12-08T14:45:28.006Z,22.83
2022-12-08T14:48:34.135Z,28.73
2022-12-08T14:51:40.034Z,28.97
2022-12-08T14:54:43.731Z,28.85
2022-12-08T14:57:49.448Z,27.40
2022-12-08T15:00:58.570Z,25.95
2022-12-08T15:04:08.706Z,31.73
2022-12-08T15:07:20.781Z,31.00
2022-12-08T15:10:33.312Z,35.42
2022-12-08T15:13:43.892Z,27.52
2022-12-08T15:16:47.305Z,29.08
2022-12-08T15:19:57.571Z,40.08
2022-12-08T15:23:01.280Z,28.07
2022-12-08T15:26:05.468Z,24.70
2022-12-08T15:29:30.055Z,20.50
2022-12-08T15:32:33.385Z,20.90
2022-12-08T15:35:40.737Z,24.27
2022-12-08T15:38:44.675Z,23.83
2022-12-08T15:41:48.060Z,24.17
2022-12-08T15:44:51.487Z,19.58
2022-12-08T15:47:54.954Z,30.02
2022-12-08T15:50:58.926Z,33.92
2022-12-08T15:54:02.778Z,28.40
2022-12-08T15:57:40.303Z,24.15
2022-12-08T16:00:53.020Z,23.67
2022-12-08T16:04:36.949Z,39.05
2022-12-08T16:07:27.336Z,30.08
2022-12-08T16:10:58.984Z,23.13
2022-12-08T16:14:04.239Z,24.35
2022-12-08T16:17:18.200Z,22.50
2022-12-08T16:20:32.701Z,20.50
2022-12-08T16:23:46.227Z,25.33
2022-12-08T16:30:17.602Z,24.27
2022-12-08T16:33:22.524Z,25.23
2022-12-08T16:36:25.964Z,21.67
2022-12-08T16:39:29.429Z,21.33
2022-12-08T16:42:40.379Z,20.65
2022-12-08T16:45:45.179Z,18.83
2022-12-08T16:48:49.155Z,22.98
2022-12-08T16:51:52.601Z,24.70
2022-12-08T16:54:56.187Z,15.90
2022-12-08T16:57:59.819Z,21.48
2022-12-08T17:01:03.336Z,21.00
2022-12-08T17:04:30.380Z,20.52
2022-12-08T17:07:30.347Z,27.25
2022-12-08T17:10:35.780Z,23.03
2022-12-08T17:13:42.899Z,29.23
2022-12-08T17:16:46.401Z,28.00
2022-12-08T17:19:49.938Z,28.77
2022-12-08T17:22:58.202Z,21.40
2022-12-08T17:26:02.588Z,31.00
2022-12-08T17:29:06.172Z,33.10
2022-12-08T17:32:10.237Z,26.70
2022-12-08T17:35:14.547Z,21.58
2022-12-08T17:38:18.888Z,27.70
2022-12-08T17:41:22.603Z,22.47
2022-12-08T17:44:26.107Z,25.58
2022-12-08T17:47:29.472Z,26.73
2022-12-08T17:50:33.535Z,23.17
2022-12-08T17:53:37.657Z,19.63
2022-12-08T17:56:41.193Z,21.23
2022-12-08T17:59:44.623Z,21.48
2022-12-08T18:02:48.044Z,21.42
2022-12-08T18:05:51.779Z,25.90
2022-12-08T18:08:56.550Z,21.20
2022-12-08T18:12:00.107Z,24.77
2022-12-08T18:15:05.642Z,23.52
2022-12-08T18:18:09.414Z,23.77
2022-12-08T18:21:14.715Z,24.27
2022-12-08T18:24:22.535Z,27.77
2022-12-08T18:27:27.247Z,25.80
2022-12-08T18:30:30.887Z,29.00
2022-12-08T18:33:34.451Z,30.60
2022-12-08T18:36:37.956Z,28.27
2022-12-08T18:39:42.124Z,27.60
2022-12-08T18:42:45.880Z,35.83
2022-12-08T18:45:49.286Z,30.33
2022-12-08T18:48:53.301Z,28.23
2022-12-08T18:51:56.815Z,29.15
2022-12-08T18:55:08.609Z,28.35
2022-12-08T18:58:15.946Z,24.03
2022-12-08T19:01:19.944Z,25.67
2022-12-08T19:04:34.697Z,37.30
2022-12-08T19:07:42.978Z,49.00
2022-12-08T19:10:46.440Z,29.77
2022-12-08T19:13:50.464Z,35.97
2022-12-08T19:16:54.010Z,32.10
2022-12-08T19:19:57.838Z,26.67
2022-12-08T19:23:01.642Z,31.65
2022-12-08T19:26:06.277Z,26.48
2022-12-08T19:29:10.957Z,23.03
2022-12-08T19:32:14.744Z,21.42
2022-12-08T19:35:18.455Z,21.63
2022-12-08T19:38:22.127Z,18.90
2022-12-08T19:41:44.191Z,21.50
2022-12-08T19:44:53.556Z,22.60
2022-12-08T19:47:57.238Z,22.23
2022-12-08T19:51:00.894Z,20.98
2022-12-08T19:54:04.939Z,23.45
2022-12-08T19:57:08.630Z,29.93
2022-12-08T20:00:13.231Z,25.42
2022-12-08T20:03:19.565Z,25.65
2022-12-08T20:06:23.625Z,23.48
2022-12-08T20:09:27.355Z,22.77
2022-12-08T20:12:31.083Z,21.80
2022-12-08T20:15:34.658Z,23.25
2022-12-08T20:18:40.047Z,20.67
2022-12-08T20:21:43.855Z,19.92
2022-12-08T20:25:09.620Z,19.98
2022-12-08T20:28:13.334Z,18.63
2022-12-08T20:31:25.101Z,22.67
2022-12-08T20:34:30.359Z,19.63
2022-12-08T20:37:34.429Z,21.65
2022-12-08T20:40:41.882Z,24.75
2022-12-08T20:43:46.612Z,32.10
2022-12-08T20:46:50.416Z,60.92
2022-12-08T20:49:53.920Z,69.25
2022-12-08T20:52:57.405Z,36.42
2022-12-08T20:56:00.886Z,22.40
2022-12-08T20:59:04.367Z,28.83
2022-12-08T21:02:09.732Z,26.05
2022-12-08T21:05:13.260Z,23.17
2022-12-08T21:08:17.775Z,21.52
2022-12-08T21:11:21.428Z,23.63
2022-12-08T21:14:24.921Z,19.80
2022-12-08T21:17:28.607Z,22.08
2022-12-08T21:20:32.131Z,24.20
2022-12-08T21:23:36.037Z,21.13
2022-12-08T21:26:39.741Z,24.67
2022-12-08T21:29:44.267Z,20.67
2022-12-08T21:32:47.938Z,21.58
2022-12-08T21:35:51.425Z,21.95
2022-12-08T21:38:55.350Z,21.70
2022-12-08T21:42:17.483Z,22.10
2022-12-08T21:45:22.664Z,22.77
2022-12-08T21:48:26.807Z,20.00
2022-12-08T21:51:30.576Z,20.63
2022-12-08T21:54:34.055Z,21.80
2022-12-08T21:57:37.442Z,19.73
2022-12-08T22:00:41.080Z,19.13
2022-12-08T22:03:44.706Z,22.10
2022-12-08T22:06:48.790Z,21.77
2022-12-08T22:09:52.717Z,18.95
2022-12-08T22:12:56.244Z,22.58
2022-12-08T22:16:06.029Z,22.20
2022-12-08T22:19:09.795Z,20.67
2022-12-08T22:22:17.025Z,24.85
2022-12-08T22:25:20.684Z,21.80
2022-12-08T22:28:24.271Z,20.88
2022-12-08T22:31:28.036Z,21.30
2022-12-08T22:34:31.367Z,24.17
2022-12-08T22:37:34.774Z,22.52
2022-12-08T22:40:40.805Z,23.73
2022-12-08T22:43:44.864Z,24.13
2022-12-08T22:46:48.511Z,21.93
2022-12-08T22:49:51.849Z,20.63
2022-12-08T22:52:55.186Z,23.73
2022-12-08T22:55:58.422Z,19.52
2022-12-08T22:59:01.945Z,21.55
2022-12-08T23:02:05.433Z,16.33
2022-12-08T23:05:09.238Z,23.27
2022-12-08T23:08:18.014Z,23.08
2022-12-08T23:11:23.506Z,21.48
2022-12-08T23:14:26.948Z,21.92
2022-12-08T23:17:30.487Z,23.30
2022-12-08T23:20:35.162Z,22.75
2022-12-08T23:23:39.317Z,23.20
2022-12-08T23:26:43.427Z,22.50
2022-12-08T23:29:46.865Z,26.77
2022-12-08T23:32:50.792Z,23.57
2022-12-08T23:35:58.656Z,26.70
2022-12-08T23:39:02.406Z,21.48
2022-12-08T23:42:06.208Z,25.63
2022-12-08T23:45:10.263Z,27.55
2022-12-08T23:48:14.095Z,28.47
2022-12-08T23:51:18.449Z,25.90
2022-12-08T23:54:21.891Z,33.78
2022-12-08T23:57:25.564Z,26.45
